createdAt,value
2022-12-24T00:01:48.936Z,9.80
2022-12-24T00:04:17.628Z,9.80
2022-12-24T00:06:47.704Z,9.80
2022-12-24T00:09:17.486Z,9.90
2022-12-24T00:11:46.147Z,9.80
2022-12-24T00:14:14.761Z,9.80
2022-12-24T00:16:43.647Z,9.80
2022-12-24T00:19:13.141Z,9.80
2022-12-24T00:21:41.848Z,9.80
2022-12-24T00:24:12.376Z,9.70
2022-12-24T00:26:41.523Z,9.70
2022-12-24T00:29:10.680Z,9.80
2022-12-24T00:31:39.772Z,9.70
2022-12-24T00:34:27.252Z,9.80
2022-12-24T00:36:56.123Z,9.80
2022-12-24T00:40:19.816Z,9.80
2022-12-24T00:42:49.735Z,9.80
2022-12-24T00:45:56.698Z,9.80
2022-12-24T00:48:25.776Z,9.80
2022-12-24T00:50:54.648Z,9.70
2022-12-24T00:53:23.328Z,9.70
2022-12-24T00:55:52.020Z,9.70
2022-12-24T00:58:22.278Z,9.70
2022-12-24T01:00:50.974Z,9.80
2022-12-24T01:03:19.793Z,9.70
2022-12-24T01:05:48.479Z,9.70
2022-12-24T01:08:17.239Z,9.70
2022-12-24T01:10:45.921Z,9.70
2022-12-24T01:13:14.617Z,9.60
2022-12-24T01:15:44.626Z,9.70
2022-12-24T01:18:13.297Z,9.60
2022-12-24T01:20:41.901Z,9.70
2022-12-24T01:23:11.364Z,9.70
2022-12-24T01:25:40.278Z,9.70
2022-12-24T01:28:09.089Z,9.70
2022-12-24T01:30:37.724Z,9.70
2022-12-24T01:33:07.755Z,9.70
2022-12-24T01:35:36.369Z,9.60
2022-12-24T01:38:04.993Z,9.60
2022-12-24T01:40:51.484Z,9.60
2022-12-24T01:43:24.971Z,9.50
2022-12-24T01:45:54.895Z,9.50
2022-12-24T01:48:41.584Z,9.40
2022-12-24T01:51:18.894Z,9.40
2022-12-24T01:53:53.310Z,9.40
2022-12-24T01:56:23.333Z,9.40
2022-12-24T01:58:55.874Z,9.40
2022-12-24T02:01:25.112Z,9.40
2022-12-24T02:03:55.623Z,9.40
2022-12-24T02:06:25.013Z,9.30
2022-12-24T02:08:53.784Z,9.30
2022-12-24T02:11:23.969Z,9.10
2022-12-24T02:13:54.667Z,9.10
2022-12-24T02:16:36.775Z,9.10
2022-12-24T02:19:39.956Z,9.10
2022-12-24T02:22:13.238Z,9.10
2022-12-24T02:25:06.792Z,9.10
2022-12-24T02:27:45.840Z,9.10
2022-12-24T02:30:19.809Z,9.00
2022-12-24T02:32:59.779Z,9.10
2022-12-24T02:35:36.405Z,9.10
2022-12-24T02:38:11.815Z,9.10
2022-12-24T02:40:46.396Z,9.00
2022-12-24T02:43:20.574Z,8.90
2022-12-24T02:45:59.295Z,8.80
2022-12-24T02:48:30.246Z,8.80
2022-12-24T02:51:03.518Z,8.80
2022-12-24T02:53:33.112Z,8.80
2022-12-24T02:56:15.631Z,8.60
2022-12-24T02:58:57.937Z,8.60
2022-12-24T03:01:36.742Z,8.50
2022-12-24T03:04:17.790Z,8.50
2022-12-24T03:06:52.317Z,8.40
2022-12-24T03:09:28.086Z,8.30
2022-12-24T03:12:01.650Z,8.20
2022-12-24T03:14:32.075Z,8.20
2022-12-24T03:17:04.656Z,8.10
2022-12-24T03:19:34.371Z,8.10
2022-12-24T03:22:08.740Z,8.10
2022-12-24T03:24:37.598Z,8.10
2022-12-24T03:27:07.497Z,8.10
2022-12-24T03:29:36.726Z,8.10
2022-12-24T03:32:06.944Z,8.00
2022-12-24T03:34:35.803Z,8.00
2022-12-24T03:37:05.282Z,7.90
2022-12-24T03:39:33.900Z,7.90
2022-12-24T03:42:02.571Z,7.90
2022-12-24T03:44:31.165Z,7.80
2022-12-24T03:46:59.857Z,7.80
2022-12-24T03:49:30.041Z,7.80
2022-12-24T03:51:58.769Z,7.70
2022-12-24T03:54:27.620Z,7.70
2022-12-24T03:56:56.286Z,7.70
2022-12-24T03:59:24.946Z,7.60
2022-12-24T04:01:53.697Z,7.70
2022-12-24T04:04:22.683Z,7.70
2022-12-24T04:06:52.695Z,7.80
2022-12-24T04:09:21.895Z,7.80
2022-12-24T04:11:50.551Z,7.80
2022-12-24T04:14:19.220Z,7.90
2022-12-24T04:16:47.857Z,8.00
2022-12-24T04:19:16.621Z,8.10
2022-12-24T04:21:45.332Z,8.20
2022-12-24T04:24:15.454Z,8.30
2022-12-24T04:26:44.049Z,8.30
2022-12-24T04:29:12.666Z,8.30
2022-12-24T04:31:44.333Z,8.30
2022-12-24T04:34:13.004Z,8.40
2022-12-24T04:36:45.436Z,8.40
2022-12-24T04:39:18.318Z,8.30
2022-12-24T04:41:47.056Z,8.30
2022-12-24T04:44:15.792Z,8.40
2022-12-24T04:46:44.440Z,8.50
2022-12-24T04:49:13.361Z,8.50
2022-12-24T04:51:41.972Z,8.50
2022-12-24T04:54:10.679Z,8.60
2022-12-24T04:56:40.973Z,8.60
2022-12-24T04:59:09.996Z,8.70
2022-12-24T05:01:39.158Z,8.80
2022-12-24T05:04:08.022Z,8.80
2022-12-24T05:06:36.763Z,8.90
2022-12-24T05:09:05.750Z,8.80
2022-12-24T05:11:34.506Z,8.80
2022-12-24T05:14:04.634Z,8.80
2022-12-24T05:16:33.435Z,8.80
2022-12-24T05:19:02.163Z,8.80
2022-12-24T05:21:30.791Z,8.80
2022-12-24T05:24:17.060Z,8.80
2022-12-24T05:26:50.335Z,8.80
2022-12-24T05:29:22.555Z,8.80
2022-12-24T05:31:51.209Z,8.80
2022-12-24T05:34:28.331Z,8.80
2022-12-24T05:36:57.070Z,8.80
2022-12-24T05:39:25.912Z,8.80
2022-12-24T05:41:54.578Z,8.80
2022-12-24T05:44:24.761Z,8.70
2022-12-24T05:46:53.389Z,8.80
2022-12-24T05:49:21.989Z,8.80
2022-12-24T05:52:11.808Z,8.90
2022-12-24T05:54:40.381Z,8.90
2022-12-24T05:57:09.536Z,8.90
2022-12-24T06:03:20.765Z,9.00
2022-12-24T06:05:49.698Z,9.00
2022-12-24T06:08:18.445Z,9.00
2022-12-24T06:10:47.187Z,9.00
2022-12-24T06:13:15.933Z,9.10
2022-12-24T06:15:44.664Z,9.00
2022-12-24T06:18:13.396Z,9.10
2022-12-24T06:20:43.530Z,9.10
2022-12-24T06:23:12.204Z,9.20
2022-12-24T06:25:41.041Z,9.30
2022-12-24T06:28:09.874Z,9.30
2022-12-24T06:30:38.691Z,9.30
2022-12-24T06:33:26.008Z,9.40
2022-12-24T06:36:33.847Z,9.50
2022-12-24T06:39:05.086Z,9.50
2022-12-24T06:41:33.720Z,9.50
2022-12-24T06:44:02.325Z,9.50
2022-12-24T06:46:30.989Z,9.50
2022-12-24T06:48:59.690Z,9.40
2022-12-24T06:51:28.315Z,9.40
2022-12-24T06:53:57.140Z,9.40
2022-12-24T06:56:27.409Z,9.40
2022-12-24T06:59:01.538Z,9.50
2022-12-24T07:01:33.830Z,9.50
2022-12-24T07:04:02.683Z,9.50
2022-12-24T07:06:31.718Z,9.60
2022-12-24T07:09:00.403Z,9.60
2022-12-24T07:11:30.405Z,9.60
2022-12-24T07:13:59.159Z,9.70
2022-12-24T07:16:27.939Z,9.60
2022-12-24T07:18:57.102Z,9.60
2022-12-24T07:21:25.930Z,9.70
2022-12-24T07:23:54.570Z,9.70
2022-12-24T07:26:23.262Z,9.70
2022-12-24T07:28:53.627Z,9.80
2022-12-24T07:31:22.245Z,9.70
2022-12-24T07:33:50.967Z,9.70
2022-12-24T07:36:21.778Z,9.80
2022-12-24T07:38:51.091Z,9.70
2022-12-24T07:41:19.758Z,9.80
2022-12-24T07:43:48.618Z,9.80
2022-12-24T07:46:18.843Z,9.80
2022-12-24T07:48:47.484Z,9.80
2022-12-24T07:51:16.249Z,9.90
2022-12-24T07:53:48.040Z,9.90
2022-12-24T07:56:17.621Z,9.80
2022-12-24T07:58:51.866Z,9.90
2022-12-24T08:01:22.191Z,9.90
2022-12-24T08:03:51.566Z,9.90
2022-12-24T08:06:20.284Z,9.90
2022-12-24T08:08:48.888Z,9.90
2022-12-24T08:11:18.383Z,9.90
2022-12-24T08:13:47.157Z,9.80
2022-12-24T08:16:15.905Z,9.80
2022-12-24T08:18:46.114Z,9.90
2022-12-24T08:21:14.983Z,9.90
2022-12-24T08:23:43.630Z,9.90
2022-12-24T08:26:13.498Z,9.90
2022-12-24T08:28:42.166Z,9.90
2022-12-24T08:31:11.202Z,9.90
2022-12-24T08:33:39.997Z,9.90
2022-12-24T08:36:10.873Z,9.90
2022-12-24T08:38:39.849Z,9.90
2022-12-24T08:41:08.618Z,9.90
2022-12-24T08:43:37.157Z,9.90
2022-12-24T08:46:07.743Z,9.90
2022-12-24T08:48:37.477Z,10.00
2022-12-24T08:51:11.034Z,9.90
2022-12-24T08:53:39.993Z,9.90
2022-12-24T08:56:11.100Z,9.90
2022-12-24T08:58:40.154Z,9.90
2022-12-24T09:01:14.195Z,9.90
2022-12-24T09:03:43.131Z,9.90
2022-12-24T09:06:13.565Z,9.90
2022-12-24T09:08:42.413Z,9.90
2022-12-24T09:11:13.524Z,9.90
2022-12-24T09:13:43.279Z,10.00
2022-12-24T09:16:12.704Z,10.00
2022-12-24T09:18:41.997Z,10.10
2022-12-24T09:21:15.568Z,10.00
2022-12-24T09:23:46.330Z,10.00
2022-12-24T09:26:16.691Z,10.00
2022-12-24T09:28:46.082Z,10.00
2022-12-24T09:31:15.428Z,10.10
2022-12-24T09:33:46.837Z,10.10
2022-12-24T09:36:16.983Z,10.10
2022-12-24T09:38:45.945Z,10.10
2022-12-24T09:41:16.651Z,10.10
2022-12-24T09:43:50.304Z,10.10
2022-12-24T09:46:26.279Z,10.10
2022-12-24T09:49:00.047Z,10.20
2022-12-24T09:51:35.051Z,10.20
2022-12-24T09:54:08.910Z,10.20
2022-12-24T09:56:41.505Z,10.30
2022-12-24T09:59:15.670Z,10.30
2022-12-24T10:01:44.817Z,10.40
2022-12-24T10:04:16.250Z,10.30
2022-12-24T10:06:53.271Z,10.30
2022-12-24T10:09:30.024Z,10.20
2022-12-24T10:12:07.347Z,10.20
2022-12-24T10:14:51.448Z,10.30
2022-12-24T10:17:35.564Z,10.30
2022-12-24T10:20:23.923Z,10.30
2022-12-24T10:23:02.417Z,10.30
2022-12-24T10:25:37.689Z,10.30
2022-12-24T10:28:15.864Z,10.20
2022-12-24T10:30:48.802Z,10.30
2022-12-24T10:33:22.044Z,10.30
2022-12-24T10:35:56.116Z,10.40
2022-12-24T10:38:26.974Z,10.40
2022-12-24T10:40:57.959Z,10.50
2022-12-24T10:43:29.954Z,10.60
2022-12-24T10:46:02.244Z,10.60
2022-12-24T10:48:34.598Z,10.60
2022-12-24T10:51:06.092Z,10.50
2022-12-24T10:53:43.341Z,10.50
2022-12-24T10:56:14.076Z,10.70
2022-12-24T10:58:45.370Z,10.80
2022-12-24T11:01:15.155Z,11.00
2022-12-24T11:03:44.359Z,11.20
2022-12-24T11:06:14.324Z,11.30
2022-12-24T11:08:45.929Z,11.30
2022-12-24T11:11:17.440Z,11.30
2022-12-24T11:13:48.145Z,11.40
2022-12-24T11:16:22.465Z,11.50
2022-12-24T11:18:53.057Z,11.50
2022-12-24T11:21:24.628Z,11.50
2022-12-24T11:23:57.269Z,11.50
2022-12-24T11:26:28.545Z,11.50
2022-12-24T11:29:22.514Z,11.40
2022-12-24T11:31:52.818Z,11.30
2022-12-24T11:34:27.159Z,11.20
2022-12-24T11:36:58.272Z,11.40
2022-12-24T11:39:28.337Z,11.50
2022-12-24T11:41:57.212Z,11.60
2022-12-24T11:44:27.849Z,11.60
2022-12-24T11:46:57.848Z,11.70
2022-12-24T11:49:28.634Z,11.50
2022-12-24T11:52:34.609Z,11.30
2022-12-24T11:55:19.884Z,11.10
2022-12-24T11:57:55.800Z,10.90
2022-12-24T12:00:24.509Z,10.80
2022-12-24T12:02:53.643Z,10.60
2022-12-24T12:05:26.568Z,10.50
2022-12-24T12:07:59.382Z,10.40
2022-12-24T12:10:32.224Z,10.40
2022-12-24T12:13:07.297Z,10.50
2022-12-24T12:15:45.301Z,10.60
2022-12-24T12:18:17.568Z,10.70
2022-12-24T12:20:49.773Z,10.70
2022-12-24T12:23:24.822Z,10.70
2022-12-24T12:25:58.285Z,10.70
2022-12-24T12:28:33.670Z,10.80
2022-12-24T12:31:11.883Z,10.80
2022-12-24T12:33:47.174Z,10.90
2022-12-24T12:36:20.354Z,10.90
2022-12-24T12:38:50.383Z,10.90
2022-12-24T12:41:38.086Z,11.00
2022-12-24T12:44:47.453Z,11.00
2022-12-24T12:47:35.936Z,11.00
2022-12-24T12:50:14.822Z,10.90
2022-12-24T12:53:06.398Z,10.80
2022-12-24T12:55:46.597Z,10.80
2022-12-24T12:58:21.922Z,10.80
2022-12-24T13:00:53.782Z,10.90
2022-12-24T13:03:43.663Z,10.80
2022-12-24T13:06:25.837Z,10.70
2022-12-24T13:09:19.309Z,10.60
2022-12-24T13:12:10.082Z,10.50
2022-12-24T13:14:58.953Z,10.50
2022-12-24T13:18:02.718Z,10.50
2022-12-24T13:20:33.962Z,10.30
2022-12-24T13:23:05.210Z,10.30
2022-12-24T13:25:38.665Z,10.20
2022-12-24T13:28:17.926Z,10.20
2022-12-24T13:30:50.053Z,10.20
2022-12-24T13:33:48.231Z,10.30
2022-12-24T13:36:17.914Z,10.30
2022-12-24T13:38:49.190Z,10.30
2022-12-24T13:41:54.145Z,10.40
2022-12-24T13:44:33.853Z,10.40
2022-12-24T13:47:32.236Z,10.50
2022-12-24T13:50:22.299Z,10.60
2022-12-24T13:52:54.416Z,10.70
2022-12-24T13:55:23.895Z,10.80
2022-12-24T13:57:58.883Z,11.10
2022-12-24T14:00:35.312Z,11.20
2022-12-24T14:03:16.972Z,11.40
2022-12-24T14:05:49.193Z,11.40
2022-12-24T14:08:27.786Z,11.50
2022-12-24T14:11:08.149Z,11.50
2022-12-24T14:14:17.410Z,11.60
2022-12-24T14:16:51.260Z,11.70
2022-12-24T14:19:25.112Z,11.80
2022-12-24T14:22:00.158Z,11.70
2022-12-24T14:24:35.313Z,11.70
2022-12-24T14:27:15.008Z,11.70
2022-12-24T14:29:51.976Z,11.60
2022-12-24T14:32:21.259Z,11.40
2022-12-24T14:35:07.341Z,11.10
2022-12-24T14:37:36.714Z,10.90
2022-12-24T14:40:07.705Z,10.80
2022-12-24T14:42:47.804Z,10.70
2022-12-24T14:45:26.321Z,10.60
2022-12-24T14:48:02.518Z,10.60
2022-12-24T14:50:51.852Z,10.50
2022-12-24T14:53:29.413Z,10.40
2022-12-24T14:55:58.099Z,10.40
2022-12-24T14:58:29.862Z,10.30
2022-12-24T15:01:00.408Z,10.20
2022-12-24T15:03:30.551Z,10.10
2022-12-24T15:06:03.268Z,10.00
2022-12-24T15:08:34.934Z,9.90
2022-12-24T15:11:06.927Z,9.80
2022-12-24T15:13:38.937Z,9.70
2022-12-24T15:16:10.245Z,9.60
2022-12-24T15:18:47.731Z,9.50
2022-12-24T15:21:21.974Z,9.40
2022-12-24T15:23:53.352Z,9.30
2022-12-24T15:26:25.674Z,9.30
2022-12-24T15:29:02.358Z,9.20
2022-12-24T15:31:32.828Z,9.10
2022-12-24T15:34:02.064Z,9.00
2022-12-24T15:36:35.531Z,9.00
2022-12-24T15:39:07.335Z,8.90
2022-12-24T15:42:00.302Z,8.80
2022-12-24T15:44:33.657Z,8.80
2022-12-24T15:47:03.513Z,8.80
2022-12-24T15:49:34.176Z,8.80
2022-12-24T15:52:09.558Z,8.80
2022-12-24T15:54:38.607Z,8.70
2022-12-24T15:57:16.422Z,8.70
2022-12-24T15:59:45.147Z,8.60
2022-12-24T16:02:36.243Z,8.50
2022-12-24T16:05:36.074Z,8.40
2022-12-24T16:08:27.085Z,8.30
2022-12-24T16:11:19.235Z,8.30
2022-12-24T16:14:11.896Z,8.20
2022-12-24T16:16:43.155Z,8.10
2022-12-24T16:19:19.617Z,8.00
2022-12-24T16:21:53.344Z,7.90
2022-12-24T16:24:25.426Z,7.90
2022-12-24T16:26:54.141Z,7.90
2022-12-24T16:29:23.572Z,7.80
2022-12-24T16:31:54.266Z,7.80
2022-12-24T16:34:26.458Z,7.80
2022-12-24T16:36:55.765Z,7.80
2022-12-24T16:39:30.269Z,7.80
2022-12-24T16:42:17.928Z,7.80
2022-12-24T16:44:47.113Z,7.80
2022-12-24T16:47:19.432Z,7.70
2022-12-24T16:49:48.285Z,7.70
2022-12-24T16:52:19.322Z,7.70
2022-12-24T16:54:51.603Z,7.70
2022-12-24T16:57:20.593Z,7.60
2022-12-24T16:59:49.525Z,7.50
2022-12-24T17:02:20.436Z,7.50
2022-12-24T17:04:50.063Z,7.40
2022-12-24T17:07:20.411Z,7.30
2022-12-24T17:09:50.430Z,7.30
2022-12-24T17:12:19.584Z,7.20
2022-12-24T17:14:48.314Z,7.20
2022-12-24T17:17:22.848Z,7.20
2022-12-24T17:19:51.753Z,7.10
2022-12-24T17:22:20.542Z,7.00
2022-12-24T17:24:50.666Z,7.10
2022-12-24T17:27:19.344Z,7.10
2022-12-24T17:29:48.026Z,7.10
2022-12-24T17:32:18.999Z,7.10
2022-12-24T17:34:47.691Z,7.10
2022-12-24T17:37:16.614Z,7.00
2022-12-24T17:39:45.271Z,7.00
2022-12-24T17:42:15.280Z,7.00
2022-12-24T17:44:43.954Z,6.90
2022-12-24T17:47:12.570Z,6.90
2022-12-24T17:49:42.071Z,6.80
2022-12-24T17:52:11.455Z,6.70
2022-12-24T17:54:40.169Z,6.70
2022-12-24T17:57:08.756Z,6.70
2022-12-24T17:59:38.729Z,6.60
2022-12-24T18:02:07.833Z,6.60
2022-12-24T18:04:36.468Z,6.60
2022-12-24T18:07:05.159Z,6.60
2022-12-24T18:09:33.774Z,6.60
2022-12-24T18:12:02.762Z,6.50
2022-12-24T18:14:31.445Z,6.50
2022-12-24T18:17:01.576Z,6.50
2022-12-24T18:19:30.393Z,6.50
2022-12-24T18:21:59.112Z,6.50
2022-12-24T18:24:27.848Z,6.40
2022-12-24T18:26:56.732Z,6.30
2022-12-24T18:29:25.661Z,6.30
2022-12-24T18:31:54.642Z,6.10
2022-12-24T18:34:24.901Z,6.00
2022-12-24T18:36:55.700Z,5.90
2022-12-24T18:39:24.661Z,5.90
2022-12-24T18:41:53.602Z,5.80
2022-12-24T18:44:25.397Z,5.70
2022-12-24T18:46:54.820Z,5.80
2022-12-24T18:49:24.987Z,5.70
2022-12-24T18:51:53.702Z,5.70
2022-12-24T18:54:22.398Z,5.70
2022-12-24T18:56:51.827Z,5.60
2022-12-24T18:59:20.705Z,5.50
2022-12-24T19:01:49.915Z,5.50
2022-12-24T19:04:18.683Z,5.50
2022-12-24T19:06:52.959Z,5.40
2022-12-24T19:09:22.077Z,5.40
2022-12-24T19:11:51.164Z,5.40
2022-12-24T19:14:21.086Z,5.30
2022-12-24T19:16:49.886Z,5.30
2022-12-24T19:19:24.042Z,5.30
2022-12-24T19:21:54.421Z,5.30
2022-12-24T19:24:23.729Z,5.30
2022-12-24T19:26:52.373Z,5.20
2022-12-24T19:29:21.144Z,5.20
2022-12-24T19:31:49.973Z,5.20
2022-12-24T19:34:19.416Z,5.10
2022-12-24T19:36:49.074Z,5.10
2022-12-24T19:39:20.354Z,5.10
2022-12-24T19:41:49.779Z,5.00
2022-12-24T19:44:18.421Z,5.00
2022-12-24T19:46:47.088Z,5.00
2022-12-24T19:49:15.887Z,5.10
2022-12-24T19:51:44.575Z,5.10
2022-12-24T19:54:18.761Z,5.00
2022-12-24T19:56:49.270Z,5.00
2022-12-24T19:59:18.056Z,5.00
2022-12-24T20:01:47.401Z,5.00
2022-12-24T20:04:18.504Z,4.90
2022-12-24T20:06:47.363Z,5.00
2022-12-24T20:09:16.071Z,4.90
2022-12-24T20:11:44.744Z,5.00
2022-12-24T20:14:14.755Z,5.00
2022-12-24T20:16:43.512Z,5.10
2022-12-24T20:19:14.386Z,5.10
2022-12-24T20:21:42.964Z,5.10
2022-12-24T20:24:11.794Z,5.20
2022-12-24T20:26:40.736Z,5.20
2022-12-24T20:29:11.404Z,5.20
2022-12-24T20:31:41.567Z,5.30
2022-12-24T20:34:11.400Z,5.30
2022-12-24T20:36:40.787Z,5.30
2022-12-24T20:39:09.649Z,5.30
2022-12-24T20:41:38.658Z,5.30
2022-12-24T20:44:07.586Z,5.30
2022-12-24T20:46:36.379Z,5.40
2022-12-24T20:49:06.447Z,5.30
2022-12-24T20:51:35.213Z,5.40
2022-12-24T20:54:03.888Z,5.40
2022-12-24T20:56:32.621Z,5.40
2022-12-24T20:59:02.427Z,5.30
2022-12-24T21:01:31.771Z,5.30
2022-12-24T21:04:04.702Z,5.30
2022-12-24T21:06:36.302Z,5.30
2022-12-24T21:09:06.090Z,5.30
2022-12-24T21:11:52.003Z,5.30
2022-12-24T21:14:22.523Z,5.30
2022-12-24T21:16:52.399Z,5.40
2022-12-24T21:19:24.106Z,5.40
2022-12-24T21:21:55.193Z,5.40
2022-12-24T21:24:23.828Z,5.40
2022-12-24T21:26:52.456Z,5.40
2022-12-24T21:29:21.161Z,5.40
2022-12-24T21:31:49.928Z,5.40
2022-12-24T21:34:18.625Z,5.40
2022-12-24T21:36:47.265Z,5.40
2022-12-24T21:39:17.436Z,5.50
2022-12-24T21:41:46.215Z,5.60
2022-12-24T21:44:15.192Z,5.60
2022-12-24T21:46:43.823Z,5.60
2022-12-24T21:49:30.412Z,5.70
2022-12-24T21:52:00.259Z,5.90
2022-12-24T21:54:31.480Z,6.10
2022-12-24T21:57:19.194Z,6.20
2022-12-24T21:59:50.345Z,6.30
2022-12-24T22:02:20.443Z,6.30
2022-12-24T22:04:49.230Z,6.40
2022-12-24T22:07:39.467Z,6.40
2022-12-24T22:10:29.344Z,6.40
2022-12-24T22:13:00.457Z,6.40
2022-12-24T22:15:29.152Z,6.40
2022-12-24T22:17:57.840Z,6.40
2022-12-24T22:20:26.792Z,6.40
2022-12-24T22:22:55.694Z,6.40
2022-12-24T22:25:26.092Z,6.40
2022-12-24T22:27:54.715Z,6.50
2022-12-24T22:30:23.370Z,6.50
2022-12-24T22:32:52.172Z,6.50
2022-12-24T22:35:20.970Z,6.50
2022-12-24T22:37:53.060Z,6.50
2022-12-24T22:40:28.059Z,6.40
2022-12-24T22:42:57.053Z,6.40
2022-12-24T22:45:26.138Z,6.40
2022-12-24T22:47:54.849Z,6.40
2022-12-24T22:50:23.777Z,6.30
2022-12-24T22:52:54.001Z,6.20
2022-12-24T22:55:22.922Z,6.20
2022-12-24T22:57:53.027Z,6.20
2022-12-24T23:00:39.771Z,6.10
2022-12-24T23:03:09.358Z,6.00
2022-12-24T23:05:38.353Z,6.10
2022-12-24T23:08:07.842Z,6.10
2022-12-24T23:10:36.600Z,6.10
2022-12-24T23:13:25.124Z,6.10
2022-12-24T23:15:53.816Z,6.20
2022-12-24T23:18:22.589Z,6.20
2022-12-24T23:20:51.308Z,6.20
2022-12-24T23:23:20.071Z,6.30
2022-12-24T23:25:48.875Z,6.40
2022-12-24T23:28:18.919Z,6.30
2022-12-24T23:30:57.690Z,6.30
2022-12-24T23:33:26.897Z,6.40
2022-12-24T23:35:55.896Z,6.40
2022-12-24T23:38:24.782Z,6.30
2022-12-24T23:40:57.047Z,6.40
2022-12-24T23:43:27.581Z,6.40
2022-12-24T23:45:57.373Z,6.50
2022-12-24T23:48:27.272Z,6.40
2022-12-24T23:51:05.434Z,6.40
2022-12-24T23:53:34.658Z,6.40
2022-12-24T23:56:03.426Z,6.30
2022-12-24T23:58:33.673Z,6.30
